首页
METAR-TAF:

METAR-TAF

机场 :

Athens, 田纳西州, 美国

纬度: 35-23-50N, 经度: 084-33-45W, 海拔: 262米

当前天气观测

该预报发布于34分钟前的11:15 UTC
静风
温度 21°C
湿度 100%
气压 1015 hPa
能見度: 16.1公里
天空无云

METAR: KMMI 091115Z AUTO 00000KT 10SM CLR 21/21 A2997 RMK A01

时间: 06:49 (11:49 UTC)


TAF: 丢失

超过4000个机场的气象观测和天气预报(METAR&TAF报告)。

可查询的气象台以黄色和红色小点在地图上表示。

将鼠标移到小点上方,可查看气象台名称。

然后点击查看天气观测和预报。

如需切换地图:点击带黑十字的绿色按钮放大地图;点击带横线的绿色按钮缩小地图;或者点击绿色箭头查看邻近地区的地图。


METAR-TAF: